Faouzi Ounas

Scout - USM Alger
23 Apr 2028
Sonntag
Verarbeitung

Persönlichkeit

Anpassungsfähigkeit (12) Ehrgeiz (4) Kontroverse (19) Loyalität (7) Druck (2) Professionalität (11) Fairness (1) Temperament (9)

Profil

Trainerstil Demokratisch
Lizenz Nationale B
Entschlossenheit 5
Menschenführung 9
Motivation 6
Disziplin 5
Arbeitszufriedenheit
100%
Ermüdung
0%
Rolle Scout
Gehalt 66.2K p/W
Vertrag 14.03.2029

Leistung

Verhalten Gut
Trainingseffektivität
31%
Spielerentwicklung
60%
Verletzungsprävention
55%
Taktische Umsetzung
20%

Letzte Ereignisse

Nahm an einer Scouting-Besprechung teil 7T her
Nahm an einer Scouting-Besprechung teil 7T her
Nahm an einer Scouting-Besprechung teil 14T her
Nahm an einer Scouting-Besprechung teil 14T her
Nahm an einer Scouting-Besprechung teil 21T her
Nahm an einer Scouting-Besprechung teil 21T her
Nahm an einer Scouting-Besprechung teil 28T her
Spiel beobachtet 28T her

Aktuell beobachtet

160
Spieler Verein Status Fähigkeit Vertrauen Beobachtet Zuletzt beobachtet Letzte Stimme
Dániel Pintér Inter Miami CF Verloren 96 / 112 40% 2 24.01.2028 -
Benedek Simon Sioni Aktiv 84 / 89 40% 1 24.01.2028 -
Lamin Sillah Exeter City Aktiv 107 / 95 40% 1 24.01.2028 -
Fethallah Tahar Olympique Akbou Verloren 107 / 111 76% 1 04.01.2028 Befürworten
Oussama Bouguerri JS Saoura Aktiv 97 / 102 30% 1 / 1m 29.12.2027 -
Ayobami Junior USM Khenchela Aktiv 100 / 100 30% 1 / 1m 29.12.2027 -
Maren Kefas Plateau United Aktiv 99 / 95 40% 5 23.10.2027 -
Luis Yanes Real Cartagena Aktiv 84 / 112 40% 3 23.10.2027 -
David Eke Enyimba Aktiv 93 / 83 40% 3 22.10.2027 -
Victor Hernandez Santa Fe Aktiv 124 / 143 40% 4 22.10.2027 -
Clayton Diandy Al-Diriyah Aktiv 110 / 120 40% 1 21.10.2027 -
Alex Verón Vélez Aktiv 118 / 113 40% 4 18.10.2027 -
Alex Amaefula Kun Khalifat Aktiv 79 / 74 40% 3 18.10.2027 -
Chimobi Igwilo Rangers International Aktiv 89 / 90 40% 1 18.10.2027 -
Joel Ezra Enyimba Aktiv 88 / 110 40% 1 16.10.2027 -
Dylan Cabral Arsenal Aktiv 102 / 111 40% 1 15.10.2027 -
Agustín De la Cuesta Racing Aktiv 113 / 119 40% 2 14.10.2027 -
Rafael Moreno Atletico Venezuela Aktiv 113 / 118 40% 1 14.10.2027 -
Yusuf Umar Katsina United Aktiv 71 / 92 40% 2 13.10.2027 -
Tobi Ige Bendel Insurance Aktiv 89 / 85 40% 1 13.10.2027 -
Tiago Pucciarelli IF Elfsborg Aktiv 100 / 122 40% 1 13.10.2027 -
Kabiru Abdullahi Barau Aktiv 86 / 92 40% 3 12.10.2027 -
Kevin Otiende Nairobi United Aktiv 62 / 63 40% 3 12.10.2027 -
Roger Fernandes Galatasaray Aktiv 136 / 156 40% 1 12.10.2027 -
Abdulrahman Hamisu Niger Tornadoes Aktiv 87 / 89 40% 2 10.10.2027 -
Giovanni Baroni Talleres Aktiv 118 / 140 40% 2 10.10.2027 -
Imran Musa Atvidaberg Aktiv 90 / 84 40% 1 10.10.2027 -
Abubakar Garba Nasarawa United Aktiv 92 / 98 40% 4 09.10.2027 -
Léo Llaneros Aktiv 88 / 102 40% 3 07.10.2027 -
Kareem Yusuff Kwara United Aktiv 65 / 87 40% 3 07.10.2027 -
Ilyes Yaiche MC El Bayadh Aktiv 95 / 95 30% 1 / 1m 06.10.2027 -
Nadjib Berrabah Olympique Akbou Aktiv 92 / 92 42% 1 / 1m 06.10.2027 -
Temur Odilov Mara Sugar Aktiv 73 / 71 40% 2 05.10.2027 -
Nicolás Barros Schelotto Gimnasia La Plata Aktiv 118 / 123 40% 1 05.10.2027 -
Piero Cari Alianza Lima Aktiv 93 / 110 40% 2 04.10.2027 -
Didier Dawson Envigado Aktiv 106 / 107 40% 1 04.10.2027 -
Andy Rojas New York Red Bulls Aktiv 99 / 117 40% 1 03.10.2027 -
Bautista Carboni Defensores Unidos Aktiv 101 / 111 40% 1 03.10.2027 -
Idris Ajiya Nasarawa United Aktiv 84 / 80 40% 6 29.09.2027 -
Tyron Kariuki KCB Aktiv 68 / 78 40% 1 29.09.2027 -
Juan Rodríguez Cerro Largo Aktiv 106 / 83 40% 4 28.09.2027 -
Abdoulaye Allamine Stars Jeunes Talents Aktiv 72 / 65 40% 2 26.09.2027 -
Nupe Godstime Bayelsa United Aktiv 88 / 98 40% 2 26.09.2027 -
Emmanuel Ndubueze Shooting Stars Aktiv 88 / 108 40% 3 25.09.2027 -
Francisco Triver River Plate Aktiv 93 / 84 40% 2 21.09.2027 -
Joel Orlando Almagro Aktiv 119 / 138 40% 3 20.09.2027 -
Hassan Beja AFC Leopards Aktiv 93 / 99 40% 1 18.09.2027 -
Wisdom Udom Bendel Insurance Aktiv 91 / 79 40% 3 17.09.2027 -
Mamoutou Berthé US Bougouba Aktiv 98 / 112 40% 2 17.09.2027 -
Abdulateef Yusuff FC Diarra Aktiv 87 / 95 40% 1 17.09.2027 -
Sebastián Ramírez Aguilas Doradas Aktiv 102 / 107 40% 2 16.09.2027 -
Gideon Manaseh Ikorodu City Aktiv 86 / 105 40% 1 15.09.2027 -
Joseph Abah Remo Stars Aktiv 88 / 98 40% 1 14.09.2027 -
Fazliddin Zuhriddinov Renaissance Aktiv 88 / 75 40% 1 10.09.2027 -
Matias Siltanen Malmo FF Aktiv 126 / 121 40% 1 30.08.2027 -
Ethan Williams Peterborough United Aktiv 123 / 114 40% 1 12.07.2027 -
Salvador Blopá Sporting CP Aktiv 107 / 136 40% 4 28.06.2027 -
Mohammed Al-Muhaysh Ohod Aktiv 72 / 88 40% 1 28.06.2027 -
Mateus Mané Burnley Aktiv 133 / 139 40% 1 28.06.2027 -
Valentin Atangana Al-Ahli Aktiv 137 / 124 40% 3 14.06.2027 -
Mahmoud El Shenawy Masr El Makasa Aktiv 67 / 59 40% 2 14.06.2027 -
Nour Ashraf ENPPI Aktiv 84 / 87 40% 1 31.05.2027 -
Daniel Dennis Ikorodu City Aktiv 98 / 88 40% 1 31.05.2027 -
Abu Kamara Portsmouth Aktiv 116 / 122 40% 1 29.05.2027 -
Tyrese Campbell Sheffield United Aktiv 119 / 121 40% 1 29.05.2027 -
Isaiah Jones Luton Town Aktiv 123 / 119 40% 2 28.05.2027 -
Koki Saito Queens Park Rangers Aktiv 129 / 122 40% 2 28.05.2027 -
Kwadwo Baah Watford Aktiv 139 / 134 40% 2 27.05.2027 -
Derensili Sanches Fernandes Huddersfield Town Aktiv 127 / 129 40% 1 27.05.2027 -
Jason Knight Bristol City Aktiv 128 / 147 40% 2 25.05.2027 -
Tyreece Campbell Charlton Athletic Aktiv 110 / 140 40% 1 25.05.2027 -
Jacques Ekomié Wrexham Aktiv 122 / 116 40% 1 25.05.2027 -
Mohau Nkota Al-Ettifaq Aktiv 126 / 118 40% 4 24.05.2027 -
Jonathan Varane Queens Park Rangers Aktiv 117 / 124 40% 1 24.05.2027 -
Ethan Galbraith Swansea City Aktiv 133 / 138 40% 1 23.05.2027 -
Sam Greenwood Bristol City Aktiv 132 / 134 40% 1 23.05.2027 -
Tomáš Rigo Stoke City Aktiv 138 / 140 40% 2 21.05.2027 -
David Turnbull Cardiff City Aktiv 125 / 117 40% 1 21.05.2027 -
Jack Currie Oxford United Aktiv 112 / 109 40% 1 20.05.2027 -
Dylan Levitt Leyton Orient Aktiv 122 / 98 40% 1 18.05.2027 -
Toby Collyer West Bromwich Albion Aktiv 137 / 149 40% 1 18.05.2027 -
Ali Ahmed Norwich City Aktiv 122 / 108 40% 2 17.05.2027 -
Daniel Kyerewaa Reading Aktiv 125 / 125 40% 1 17.05.2027 -
Tony Springett Cheltenham Town Aktiv 108 / 119 40% 1 17.05.2027 -
Osama Al-Johar Al-Jeel Aktiv 66 / 77 40% 1 17.05.2027 -
Miguel Figueiredo Benfica Aktiv 106 / 139 40% 1 17.05.2027 -
Kiani Inge Groningen Aktiv 100 / 128 40% 1 17.05.2027 -
Khalid Al-Ghannam Al-Ettifaq Aktiv 124 / 122 40% 3 13.05.2027 -
Oswin Appollis Orlando Pirates Aktiv 127 / 106 40% 3 12.05.2027 -
Louie Barry Sheffield Wednesday Aktiv 132 / 107 40% 1 12.05.2027 -
Pietro Reggiori Pro Patria Aktiv 101 / 117 40% 1 12.05.2027 -
Zane Albarus Shrewsbury Town Aktiv 92 / 93 40% 1 12.05.2027 -
Bongani Zungu Ajax Cape Town Aktiv 123 / 121 40% 3 10.05.2027 -
Darragh Burns Grimsby Town Aktiv 102 / 81 40% 1 10.05.2027 -
Malik Mothersille Stockport County Aktiv 117 / 109 40% 1 10.05.2027 -
Rhys Walters Port Vale Aktiv 108 / 128 40% 1 10.05.2027 -
Bosun Lawal Stoke City Aktiv 129 / 146 40% 1 07.05.2027 -
Joe Gelhardt Hull City Aktiv 131 / 119 40% 1 07.05.2027 -
Finn Jeltsch VfB Stuttgart Aktiv 125 / 143 40% 1 07.05.2027 -
Rhys Chadwick AFC Wimbledon Aktiv 93 / 108 40% 1 07.05.2027 -
Ilyas Ansah Hull City Aktiv 122 / 123 40% 2 05.05.2027 -
Aboubacar Doumbia Al-Orobah Aktiv 110 / 101 40% 1 04.05.2027 -
Bonheur Mugisha Al-Hazem Aktiv 111 / 104 40% 7 03.05.2027 -
Mahamadou Doumbia Al-Ittihad Aktiv 132 / 130 40% 5 29.04.2027 -
Danilo Veiga Lecce Aktiv 124 / 110 40% 1 29.04.2027 -
Mohammed Abu Al-Shamat Al-Qadisiyah Aktiv 130 / 125 40% 2 27.04.2027 -
Christopher Bonsu Baah Al-Qadisiyah Aktiv 124 / 126 40% 1 26.04.2027 -
Noa Cervantes USM Khenchela Aktiv 103 / 108 40% 2 25.04.2027 Mehr Infos nötig
Stefano Di Mario Virtus Entella Aktiv 128 / 113 40% 2 24.04.2027 -
Saleh Abu Al-Shamat Al-Ahli Aktiv 113 / 121 40% 1 24.04.2027 -
John Mercado Sparta Prague Aktiv 136 / 132 40% 1 24.04.2027 -
Charlie Gray Fleetwood Town Aktiv 92 / 87 40% 1 23.04.2027 -
David Ozoh Derby County Aktiv 111 / 142 40% 1 23.04.2027 -
Niccolò Pierozzi Palermo Aktiv 125 / 141 40% 1 21.04.2027 -
Solomon Tweh Al-Ra'ed Aktiv 109 / 99 40% 3 18.04.2027 -
Themba Williams Ajax Cape Town Aktiv 121 / 115 40% 2 18.04.2027 -
Ziyad Al-Johani Al-Ahli Aktiv 116 / 131 40% 3 17.04.2027 -
Mehdi Dorval Catanzaro Aktiv 123 / 144 40% 2 16.04.2027 -
Bradley Zwane SuperSport United Aktiv 119 / 123 40% 2 15.04.2027 -
Afriyie Sulemana WAFA Aktiv 82 / 95 40% 1 15.04.2027 -
Francis Gomez Cardiff City Aktiv 113 / 120 40% 1 15.04.2027 -
Germán Barbas Burgos Aktiv 101 / 101 40% 1 11.04.2027 -
Mohamed Amine Katiba Hearts of Oak Aktiv 89 / 102 40% 1 11.04.2027 -
Ahmed Al-Ghamdi Al-Ittihad Aktiv 102 / 116 40% 1 10.04.2027 -
Santiago Pierotti Lecce Aktiv 140 / 116 40% 1 09.04.2027 -
Andrea Carboni Monza Aktiv 120 / 107 40% 1 05.04.2027 -
Ítalo Ural Aktiv 105 / 99 40% 1 04.04.2027 -
Mattia Viti Sampdoria Aktiv 126 / 152 40% 1 03.04.2027 -
Ali Majrashi Al-Ahli Aktiv 126 / 115 40% 2 02.04.2027 -
Musab Al-Juwayr Al-Qadisiyah Aktiv 136 / 135 40% 3 02.04.2027 -
Brendan Wiredu Plymouth Argyle Aktiv 118 / 120 40% 1 02.04.2027 -
Ahmed Mohamed Kerroum MC Oran Aktiv 101 / 116 40% 2 01.04.2027 -
Baba Amoah BA All Stars Aktiv 100 / 94 40% 1 29.03.2027 -
Ahmed Al-Nakhli Al-Hazem Aktiv 106 / 121 40% 1 28.03.2027 -
Zaydou Youssouf Al-Fateh Aktiv 129 / 130 40% 3 24.03.2027 -
Ivan Giraldo Valencia Aktiv 124 / 133 40% 1 24.03.2027 -
Merwane Khelif MC Alger Aktiv 110 / 110 40% 1 20.03.2027 -
Miloš Brnović Arsenal Tula Aktiv 104 / 131 40% 1 20.03.2027 -
Lebogang Dolly Free State Stars Aktiv 117 / 122 40% 1 19.03.2027 -
Nadir Zortea Bologna Aktiv 148 / 131 40% 1 17.03.2027 -
Faisal Al-Ghamdi Al-Ittihad Aktiv 117 / 116 40% 1 17.03.2027 -
Turki Al-Ammar Al-Qadisiyah Aktiv 120 / 128 40% 1 15.03.2027 -
Hannibal Burnley Aktiv 124 / 136 40% 1 15.03.2027 -
Yacine Adli Al-Shabab Aktiv 142 / 128 40% 3 14.03.2027 -
Radhi Al-Otaibi Al-Ettifaq Aktiv 116 / 101 40% 1 11.03.2027 -
Hammam Al-Hammami Al-Shabab Aktiv 110 / 118 40% 1 11.03.2027 -
Younes El Bahraoui Al-Taawoun Aktiv 107 / 106 40% 1 09.03.2027 -
Imad Riahi Najran Aktiv 111 / 110 40% 1 04.03.2027 -
Armstrong Oko-Flex Levski Aktiv 124 / 129 40% 1 03.03.2027 -
Jean Charles Ahoua Al-Faisaly Aktiv 107 / 116 40% 1 02.03.2027 -
Gastón Álvarez Al-Qadisiyah Aktiv 136 / 121 40% 1 14.12.2026 Mehr Infos nötig
Yanis Hamache MC Alger Aktiv 109 / 96 40% 1 08.12.2026 -
Moussa N'Diaye Al Nasr Aktiv 120 / 118 40% 1 20.11.2026 -
Leandrinho Sharjah Aktiv 110 / 119 40% 1 18.11.2026 -
Erik Al Ahli Aktiv 122 / 133 40% 1 18.11.2026 -
Gláuber Al Nasr Aktiv 112 / 121 40% 1 18.11.2026 -
Siaka Sidibé Al Wasl Aktiv 115 / 117 40% 1 03.11.2026 -
Pedro Malheiro Al Wasl Aktiv 142 / 126 40% 1 03.11.2026 -
Mamadou Coulibaly Al Jazira Aktiv 129 / 111 40% 1 07.10.2026 -
Dion Lopy Al-Ittihad Aktiv 132 / 123 40% 1 05.10.2026 -